createdAt,value
2019-04-23T00:00:05.201Z,12.10
2019-04-23T00:02:29.797Z,11.90
2019-04-23T00:05:02.066Z,11.80
2019-04-23T00:07:45.521Z,11.70
2019-04-23T00:10:12.633Z,11.50
2019-04-23T00:12:43.818Z,11.60
2019-04-23T00:15:15.005Z,11.80
2019-04-23T00:17:42.202Z,11.60
2019-04-23T00:22:54.804Z,11.60
2019-04-23T00:25:43.666Z,11.70
2019-04-23T00:27:59.807Z,11.70
2019-04-23T00:30:40.083Z,11.40
2019-04-23T00:33:10.041Z,11.50
2019-04-23T00:35:32.393Z,11.60
2019-04-23T00:38:04.993Z,11.40
2019-04-23T00:43:08.582Z,11.60
2019-04-23T00:45:47.095Z,11.20
2019-04-23T00:48:14.905Z,11.30
2019-04-23T00:50:49.248Z,11.40
2019-04-23T00:53:13.831Z,11.30
2019-04-23T00:58:21.157Z,11.20
2019-04-23T01:00:56.129Z,11.40
2019-04-23T01:03:17.146Z,11.30
2019-04-23T01:05:48.899Z,11.20
2019-04-23T01:11:03.278Z,11.20
2019-04-23T01:13:39.368Z,11.20
2019-04-23T01:16:05.971Z,11.20
2019-04-23T01:21:01.079Z,11.30
2019-04-23T01:23:40.435Z,11.20
2019-04-23T01:26:26.545Z,11.20
2019-04-23T01:29:02.784Z,11.00
2019-04-23T01:31:39.480Z,11.00
2019-04-23T01:34:11.480Z,11.20
2019-04-23T01:36:32.545Z,11.00
2019-04-23T01:39:06.245Z,10.90
2019-04-23T01:41:45.164Z,10.80
2019-04-23T01:44:05.249Z,10.80
2019-04-23T01:46:46.207Z,10.90
2019-04-23T01:49:13.702Z,11.00
2019-04-23T01:51:49.762Z,11.00
2019-04-23T01:54:24.124Z,10.90
2019-04-23T01:56:40.099Z,10.80
2019-04-23T01:59:18.288Z,10.70
2019-04-23T02:01:50.291Z,10.60
2019-04-23T02:04:22.960Z,11.00
2019-04-23T02:06:53.697Z,10.70
2019-04-23T02:09:25.477Z,10.80
2019-04-23T02:14:29.548Z,10.70
2019-04-23T02:16:57.866Z,10.60
2019-04-23T02:19:34.806Z,10.50
2019-04-23T02:22:19.329Z,10.70
2019-04-23T02:24:47.591Z,10.70
2019-04-23T02:27:24.919Z,10.70
2019-04-23T02:32:28.974Z,10.50
2019-04-23T02:37:45.817Z,10.30
2019-04-23T02:40:08.744Z,10.30
2019-04-23T02:45:07.119Z,10.50
2019-04-23T02:52:37.282Z,10.40
2019-04-23T02:57:41.607Z,10.20
2019-04-23T03:00:18.571Z,10.20
2019-04-23T03:02:56.563Z,10.30
2019-04-23T03:05:21.824Z,10.30
2019-04-23T03:07:47.410Z,10.30
2019-04-23T03:13:16.082Z,10.20
2019-04-23T03:15:34.562Z,10.40
2019-04-23T03:23:42.329Z,10.30
2019-04-23T03:28:55.758Z,10.40
2019-04-23T03:34:19.627Z,10.30
2019-04-23T03:41:39.258Z,10.20
2019-04-23T03:43:46.884Z,10.20
2019-04-23T03:48:55.033Z,10.00
2019-04-23T03:54:26.052Z,10.10
2019-04-23T03:59:12.561Z,10.20
2019-04-23T04:04:20.247Z,10.30
2019-04-23T04:09:17.731Z,10.10
2019-04-23T04:14:25.176Z,10.00
2019-04-23T04:16:42.754Z,10.10
2019-04-23T04:21:49.351Z,10.20
2019-04-23T04:24:24.813Z,10.30
2019-04-23T04:26:51.444Z,10.20
2019-04-23T04:29:21.565Z,10.10
2019-04-23T04:32:02.659Z,10.20
2019-04-23T04:34:43.814Z,10.40
2019-04-23T04:37:18.362Z,10.30
2019-04-23T04:46:58.708Z,10.30
2019-04-23T04:49:33.607Z,10.30
2019-04-23T04:57:02.626Z,10.30
2019-04-23T04:59:53.881Z,10.10
2019-04-23T05:02:22.497Z,10.30
2019-04-23T05:09:48.152Z,10.40
2019-04-23T05:12:23.875Z,10.50
2019-04-23T05:14:56.848Z,10.50
2019-04-23T05:17:32.426Z,10.50
2019-04-23T05:19:57.331Z,10.40
2019-04-23T05:22:36.184Z,10.40
2019-04-23T05:24:51.459Z,10.50
2019-04-23T05:27:43.144Z,10.30
2019-04-23T05:30:08.881Z,10.40
2019-04-23T05:32:33.614Z,10.60
2019-04-23T05:35:03.396Z,10.40
2019-04-23T05:37:42.197Z,10.50
2019-04-23T05:40:18.697Z,10.90
2019-04-23T05:42:40.114Z,10.70
2019-04-23T05:45:09.790Z,10.90
2019-04-23T05:47:32.923Z,10.60
2019-04-23T05:50:24.271Z,10.90
2019-04-23T05:52:46.426Z,10.70
2019-04-23T05:57:42.704Z,10.90
2019-04-23T06:00:19.004Z,10.90
2019-04-23T06:02:58.351Z,11.00
2019-04-23T06:05:26.258Z,11.10
2019-04-23T06:07:49.871Z,10.80
2019-04-23T06:10:25.996Z,11.10
2019-04-23T06:12:50.660Z,11.30
2019-04-23T06:15:30.322Z,11.40
2019-04-23T06:18:04.919Z,11.40
2019-04-23T06:20:27.609Z,11.40
2019-04-23T06:22:56.025Z,11.80
2019-04-23T06:28:05.099Z,11.60
2019-04-23T06:30:41.517Z,11.50
2019-04-23T06:33:08.372Z,11.50
2019-04-23T06:35:37.683Z,11.50
2019-04-23T06:40:41.856Z,11.90
2019-04-23T06:45:45.644Z,11.70
2019-04-23T06:50:58.169Z,12.00
2019-04-23T06:53:19.728Z,12.00
2019-04-23T06:55:56.382Z,12.20
2019-04-23T07:03:35.169Z,12.70
2019-04-23T07:06:19.084Z,12.80
2019-04-23T07:16:27.731Z,12.70
2019-04-23T07:19:04.258Z,12.90
2019-04-23T07:24:00.690Z,12.80
2019-04-23T07:26:30.572Z,12.90
2019-04-23T07:28:53.254Z,13.10
2019-04-23T07:36:31.080Z,13.60
2019-04-23T07:39:01.211Z,13.60
2019-04-23T07:41:43.392Z,13.60
2019-04-23T07:46:52.856Z,13.60
2019-04-23T07:49:20.228Z,13.70
2019-04-23T07:52:01.273Z,13.80
2019-04-23T07:54:22.733Z,13.90
2019-04-23T07:56:55.369Z,14.10
2019-04-23T07:59:29.066Z,13.80
2019-04-23T08:01:58.169Z,14.00
2019-04-23T08:04:30.188Z,14.00
2019-04-23T08:06:53.062Z,14.30
2019-04-23T08:09:30.089Z,14.30
2019-04-23T08:11:56.203Z,14.40
2019-04-23T08:14:34.359Z,14.60
2019-04-23T08:17:02.070Z,14.60
2019-04-23T08:19:34.966Z,14.50
2019-04-23T08:22:14.169Z,14.80
2019-04-23T08:24:48.573Z,14.90
2019-04-23T08:27:16.691Z,14.90
2019-04-23T08:29:43.969Z,15.00
2019-04-23T08:32:19.327Z,15.10
2019-04-23T08:37:25.491Z,15.00
2019-04-23T08:40:06.490Z,15.10
2019-04-23T08:42:49.636Z,15.10
2019-04-23T08:50:00.656Z,15.40
2019-04-23T08:52:31.185Z,15.60
2019-04-23T08:55:20.987Z,15.60
2019-04-23T08:57:32.430Z,15.60
2019-04-23T09:00:02.456Z,15.80
2019-04-23T09:05:31.672Z,16.00
2019-04-23T09:07:49.425Z,16.10
2019-04-23T09:12:55.311Z,16.10
2019-04-23T09:15:25.512Z,16.10
2019-04-23T09:17:56.326Z,16.20
2019-04-23T09:22:48.463Z,16.30
2019-04-23T09:25:33.363Z,16.20
2019-04-23T09:27:56.315Z,16.30
2019-04-23T09:33:00.808Z,16.20
2019-04-23T09:35:30.918Z,16.40
2019-04-23T09:38:17.793Z,16.30
2019-04-23T09:41:19.895Z,16.40
2019-04-23T09:44:00.917Z,16.50
2019-04-23T09:46:37.778Z,16.50
2019-04-23T09:49:14.653Z,16.80
2019-04-23T09:51:45.214Z,16.90
2019-04-23T10:01:29.213Z,17.30
2019-04-23T10:04:05.589Z,17.50
2019-04-23T10:06:30.222Z,17.50
2019-04-23T10:08:58.627Z,17.40
2019-04-23T10:11:26.367Z,17.40
2019-04-23T10:13:56.655Z,17.40
2019-04-23T10:16:30.094Z,17.40
2019-04-23T10:18:57.519Z,17.50
2019-04-23T10:21:29.090Z,17.50
2019-04-23T10:23:59.342Z,17.60
2019-04-23T10:26:30.303Z,17.50
2019-04-23T10:29:02.342Z,17.50
2019-04-23T10:31:33.474Z,17.30
2019-04-23T10:34:04.399Z,17.60
2019-04-23T10:36:35.898Z,17.60
2019-04-23T10:39:14.679Z,17.70
2019-04-23T10:41:42.486Z,17.90
2019-04-23T10:44:12.953Z,17.90
2019-04-23T10:47:14.998Z,17.90
2019-04-23T10:50:05.437Z,17.90
2019-04-23T10:52:28.023Z,18.00
2019-04-23T10:54:50.914Z,18.00
2019-04-23T10:57:19.832Z,18.00
2019-04-23T11:00:09.632Z,18.10
2019-04-23T11:05:15.927Z,18.10
2019-04-23T11:12:43.610Z,18.30
2019-04-23T11:20:26.826Z,18.60
2019-04-23T11:27:42.571Z,18.70
2019-04-23T11:33:05.009Z,18.70
2019-04-23T11:35:31.412Z,18.70
2019-04-23T11:37:58.721Z,18.80
2019-04-23T11:38:23.665Z,18.80
2019-04-23T11:40:28.346Z,18.80
2019-04-23T11:48:21.902Z,19.20
2019-04-23T11:51:17.485Z,19.20
2019-04-23T11:53:15.557Z,19.10
2019-04-23T11:55:44.933Z,19.20
2019-04-23T11:58:16.035Z,19.50
2019-04-23T12:00:49.163Z,19.40
2019-04-23T12:03:07.620Z,19.50
2019-04-23T12:06:07.528Z,19.50
2019-04-23T12:08:43.283Z,19.30
2019-04-23T12:14:02.325Z,19.70
2019-04-23T12:16:43.566Z,19.70
2019-04-23T12:19:28.662Z,19.50
2019-04-23T12:21:43.406Z,19.60
2019-04-23T12:24:15.860Z,19.70
2019-04-23T12:26:44.351Z,19.80
2019-04-23T12:29:23.321Z,19.90
2019-04-23T12:31:47.638Z,19.80
2019-04-23T12:34:14.137Z,19.90
2019-04-23T12:36:45.662Z,20.10
2019-04-23T12:39:23.875Z,20.00
2019-04-23T12:41:51.064Z,20.00
2019-04-23T12:44:24.172Z,19.90
2019-04-23T12:46:52.771Z,19.80
2019-04-23T12:49:50.453Z,19.90
2019-04-23T12:51:57.812Z,20.00
2019-04-23T12:54:42.879Z,20.10
2019-04-23T12:57:09.829Z,20.20
2019-04-23T12:59:28.667Z,20.00
2019-04-23T13:02:03.395Z,19.90
2019-04-23T13:04:35.042Z,20.10
2019-04-23T13:07:09.141Z,20.00
2019-04-23T13:09:45.763Z,20.00
2019-04-23T13:12:20.304Z,20.10
2019-04-23T13:14:51.048Z,19.80
2019-04-23T13:17:30.008Z,19.90
2019-04-23T13:22:23.391Z,19.80
2019-04-23T13:24:56.040Z,20.00
2019-04-23T13:27:29.029Z,20.00
2019-04-23T13:30:21.178Z,19.80
2019-04-23T13:32:31.502Z,19.90
2019-04-23T13:35:10.604Z,19.90
2019-04-23T13:40:01.347Z,19.70
2019-04-23T13:47:47.238Z,19.80
2019-04-23T13:50:24.830Z,19.70
2019-04-23T13:58:09.238Z,19.40
2019-04-23T14:00:20.559Z,19.30
2019-04-23T14:02:45.677Z,19.40
2019-04-23T14:05:26.740Z,19.40
2019-04-23T14:10:34.181Z,19.50
2019-04-23T14:13:23.701Z,19.30
2019-04-23T14:18:20.842Z,19.30
2019-04-23T14:20:34.856Z,19.20
2019-04-23T14:25:50.481Z,19.00
2019-04-23T14:28:22.186Z,19.10
2019-04-23T14:30:46.679Z,19.00
2019-04-23T14:33:17.398Z,19.10
2019-04-23T14:36:02.169Z,18.90
2019-04-23T14:38:21.870Z,19.10
2019-04-23T14:43:40.631Z,19.00
2019-04-23T14:46:04.842Z,19.00
2019-04-23T14:48:23.170Z,18.90
2019-04-23T14:51:02.380Z,18.90
2019-04-23T14:53:39.784Z,18.80
2019-04-23T14:56:00.556Z,18.80
2019-04-23T15:01:27.279Z,18.70
2019-04-23T15:03:40.356Z,18.80
2019-04-23T15:11:24.325Z,18.80
2019-04-23T15:13:45.572Z,18.80
2019-04-23T15:16:17.029Z,18.80
2019-04-23T15:19:21.748Z,18.70
2019-04-23T15:21:57.996Z,18.80
2019-04-23T15:24:30.858Z,18.90
2019-04-23T15:29:02.750Z,18.60
2019-04-23T15:34:30.721Z,18.90
2019-04-23T15:37:11.197Z,18.90
2019-04-23T15:39:33.247Z,18.90
2019-04-23T15:44:16.146Z,18.80
2019-04-23T15:49:26.944Z,19.10
2019-04-23T15:52:27.896Z,18.90
2019-04-23T15:54:34.929Z,18.80
2019-04-23T15:57:01.187Z,18.90
2019-04-23T16:01:41.965Z,18.90
2019-04-23T16:04:09.763Z,18.90
2019-04-23T16:06:39.061Z,18.90
2019-04-23T16:09:39.877Z,18.80
2019-04-23T16:12:04.644Z,18.80
2019-04-23T16:14:47.924Z,18.80
2019-04-23T16:17:13.780Z,18.90
2019-04-23T16:19:59.811Z,18.90
2019-04-23T16:22:18.995Z,18.90
2019-04-23T16:25:03.274Z,18.80
2019-04-23T16:30:15.950Z,18.60
2019-04-23T16:32:57.639Z,18.60
2019-04-23T16:35:30.467Z,18.60
2019-04-23T16:38:01.619Z,18.60
2019-04-23T16:40:28.917Z,18.50
2019-04-23T16:42:56.679Z,18.40
2019-04-23T16:45:27.065Z,18.60
2019-04-23T16:47:56.539Z,18.50
2019-04-23T16:50:32.630Z,18.40
2019-04-23T16:53:00.165Z,18.40
2019-04-23T16:55:34.549Z,18.30
2019-04-23T16:58:01.654Z,18.30
2019-04-23T17:00:33.487Z,18.30
2019-04-23T17:03:12.810Z,18.20
2019-04-23T17:05:40.957Z,18.30
2019-04-23T17:08:32.566Z,18.20
2019-04-23T17:10:49.070Z,18.10
2019-04-23T17:13:13.752Z,18.20
2019-04-23T17:15:53.412Z,18.20
2019-04-23T17:18:16.863Z,18.10
2019-04-23T17:23:34.479Z,18.00
2019-04-23T17:25:48.869Z,18.00
2019-04-23T17:28:21.810Z,17.90
2019-04-23T17:31:03.328Z,17.80
2019-04-23T17:33:27.599Z,17.90
2019-04-23T17:36:13.246Z,17.80
2019-04-23T17:41:31.220Z,17.70
2019-04-23T17:44:01.413Z,17.70
2019-04-23T17:46:32.282Z,17.60
2019-04-23T17:49:04.675Z,17.80
2019-04-23T17:51:27.409Z,17.60
2019-04-23T17:54:13.961Z,17.50
2019-04-23T17:56:45.452Z,17.40
2019-04-23T17:59:13.210Z,17.60
2019-04-23T18:01:47.266Z,17.70
2019-04-23T18:04:38.875Z,17.50
2019-04-23T18:06:51.583Z,17.40
2019-04-23T18:09:22.794Z,17.40
2019-04-23T18:11:55.040Z,17.50
2019-04-23T18:14:31.329Z,17.10
2019-04-23T18:22:18.002Z,17.30
2019-04-23T18:25:04.386Z,17.10
2019-04-23T18:27:35.957Z,17.20
2019-04-23T18:30:09.492Z,17.20
2019-04-23T18:35:20.104Z,17.00
2019-04-23T18:37:49.271Z,16.80
2019-04-23T18:40:21.351Z,16.70
2019-04-23T18:43:03.201Z,17.00
2019-04-23T18:45:33.978Z,17.00
2019-04-23T18:48:03.760Z,16.80
2019-04-23T18:50:43.279Z,16.90
2019-04-23T18:53:02.356Z,17.10
2019-04-23T18:55:49.098Z,16.90
2019-04-23T18:58:03.354Z,16.80
2019-04-23T19:00:45.169Z,16.70
2019-04-23T19:03:20.004Z,16.50
2019-04-23T19:06:10.003Z,16.50
2019-04-23T19:08:53.426Z,16.70
2019-04-23T19:11:35.654Z,16.60
2019-04-23T19:13:41.535Z,16.40
2019-04-23T19:16:12.550Z,16.60
2019-04-23T19:18:40.460Z,16.60
2019-04-23T19:21:20.805Z,16.50
2019-04-23T19:23:47.621Z,16.90
2019-04-23T19:26:32.313Z,16.70
2019-04-23T19:29:07.000Z,16.60
2019-04-23T19:31:40.463Z,16.80
2019-04-23T19:36:49.236Z,16.50
2019-04-23T19:39:19.254Z,16.70
2019-04-23T19:47:01.733Z,16.20
2019-04-23T19:49:25.068Z,16.20
2019-04-23T19:51:48.186Z,16.40
2019-04-23T19:54:25.139Z,16.20
2019-04-23T19:57:01.898Z,15.90
2019-04-23T19:59:27.158Z,15.80
2019-04-23T20:01:56.073Z,16.00
2019-04-23T20:04:28.766Z,15.90
2019-04-23T20:07:12.862Z,15.40
2019-04-23T20:12:01.375Z,15.80
2019-04-23T20:14:31.826Z,15.70
2019-04-23T20:17:17.666Z,16.10
2019-04-23T20:19:37.402Z,15.50
2019-04-23T20:22:09.213Z,15.90
2019-04-23T20:24:41.678Z,15.90
2019-04-23T20:34:58.873Z,15.20
2019-04-23T20:37:42.824Z,14.90
2019-04-23T20:40:08.611Z,15.20
2019-04-23T20:42:30.526Z,14.90
2019-04-23T20:44:59.090Z,15.00
2019-04-23T20:47:32.340Z,15.30
2019-04-23T20:49:51.789Z,15.10
2019-04-23T20:52:30.160Z,15.10
2019-04-23T21:05:16.272Z,14.70
2019-04-23T21:10:27.273Z,14.50
2019-04-23T21:17:59.525Z,14.60
2019-04-23T21:23:04.637Z,14.70
2019-04-23T21:25:30.216Z,14.70
2019-04-23T21:39:07.660Z,14.70
2019-04-23T21:44:10.328Z,14.50
2019-04-23T21:46:40.319Z,14.00
2019-04-23T21:49:19.158Z,13.90
2019-04-23T21:53:58.904Z,13.50
2019-04-23T21:56:37.194Z,13.80
2019-04-23T21:59:06.952Z,13.50
2019-04-23T22:04:25.081Z,13.60
2019-04-23T22:09:21.877Z,14.10
2019-04-23T22:14:27.648Z,13.80
2019-04-23T22:17:10.041Z,13.80
2019-04-23T22:19:20.105Z,13.70
2019-04-23T22:24:27.627Z,13.80
2019-04-23T22:26:58.139Z,13.60
2019-04-23T22:29:37.748Z,13.20
2019-04-23T22:32:04.135Z,13.30
2019-04-23T22:34:42.950Z,13.40
2019-04-23T22:39:39.892Z,13.60
2019-04-23T22:42:15.201Z,13.80
2019-04-23T22:44:59.092Z,13.80
2019-04-23T22:47:10.292Z,13.70
2019-04-23T22:49:55.357Z,13.70
2019-04-23T22:52:21.569Z,13.30
2019-04-23T22:54:57.032Z,13.40
2019-04-23T22:57:09.372Z,13.60
2019-04-23T23:00:04.483Z,13.50
2019-04-23T23:02:59.433Z,13.60
2019-04-23T23:05:59.098Z,13.50
2019-04-23T23:10:44.223Z,13.30
2019-04-23T23:20:52.397Z,13.10
2019-04-23T23:23:17.778Z,13.20
2019-04-23T23:25:56.984Z,13.20
2019-04-23T23:28:31.512Z,13.20
2019-04-23T23:31:05.324Z,13.30
2019-04-23T23:33:24.569Z,13.20
2019-04-23T23:36:03.583Z,13.30
2019-04-23T23:38:33.536Z,13.30
2019-04-23T23:43:29.810Z,13.40
2019-04-23T23:46:13.934Z,13.10
2019-04-23T23:48:39.322Z,13.10
2019-04-23T23:51:09.868Z,13.20
2019-04-23T23:56:11.337Z,13.30
